createdAt,value
2022-12-06T00:00:40.572Z,26.58
2022-12-06T00:04:41.991Z,13.32
2022-12-06T00:08:43.911Z,15.65
2022-12-06T00:12:45.328Z,20.88
2022-12-06T00:16:46.906Z,25.83
2022-12-06T00:20:48.417Z,24.25
2022-12-06T00:24:49.839Z,24.15
2022-12-06T00:28:56.624Z,17.70
2022-12-06T00:32:58.083Z,18.80
2022-12-06T00:36:59.567Z,24.38
2022-12-06T00:41:05.056Z,16.00
2022-12-06T00:45:07.304Z,21.08
2022-12-06T00:49:09.591Z,24.15
2022-12-06T00:53:11.149Z,23.50
2022-12-06T00:57:12.598Z,22.08
2022-12-06T01:01:20.602Z,21.50
2022-12-06T01:05:22.096Z,18.10
2022-12-06T01:09:23.579Z,20.17
2022-12-06T01:13:25.019Z,22.52
2022-12-06T01:17:26.488Z,23.65
2022-12-06T01:21:29.109Z,18.95
2022-12-06T01:25:35.787Z,23.42
2022-12-06T01:29:38.017Z,23.35
2022-12-06T01:33:39.502Z,21.58
2022-12-06T01:37:41.144Z,21.92
2022-12-06T01:41:42.603Z,22.52
2022-12-06T01:45:44.612Z,18.55
2022-12-06T01:49:56.448Z,18.35
2022-12-06T01:54:00.134Z,21.45
2022-12-06T01:58:07.726Z,23.52
2022-12-06T02:02:09.317Z,17.60
2022-12-06T02:06:10.911Z,22.23
2022-12-06T02:10:13.362Z,20.45
2022-12-06T02:14:19.936Z,3.58
2022-12-06T02:18:31.910Z,21.27
2022-12-06T02:22:39.377Z,18.23
2022-12-06T02:26:48.287Z,18.20
2022-12-06T02:30:59.932Z,20.03
2022-12-06T02:35:25.189Z,16.67
2022-12-06T02:39:48.273Z,20.63
2022-12-06T02:43:56.584Z,20.65
2022-12-06T02:48:03.013Z,17.15
2022-12-06T02:52:05.304Z,16.33
2022-12-06T02:56:08.055Z,20.92
2022-12-06T03:00:28.358Z,19.95
2022-12-06T03:09:06.006Z,18.60
2022-12-06T03:13:16.672Z,23.83
2022-12-06T03:17:26.866Z,18.20
2022-12-06T03:21:32.270Z,21.42
2022-12-06T03:25:36.039Z,22.45
2022-12-06T03:29:43.480Z,23.08
2022-12-06T03:33:56.013Z,21.20
2022-12-06T03:38:06.184Z,21.63
2022-12-06T03:42:08.327Z,13.38
2022-12-06T03:46:17.816Z,20.67
2022-12-06T03:50:25.277Z,18.17
2022-12-06T03:54:27.114Z,19.17
2022-12-06T03:58:28.639Z,12.73
2022-12-06T04:02:30.074Z,11.43
2022-12-06T04:06:31.608Z,14.23
2022-12-06T04:10:33.128Z,20.48
2022-12-06T04:14:39.235Z,19.40
2022-12-06T04:18:40.757Z,20.23
2022-12-06T04:23:00.762Z,21.45
2022-12-06T04:27:22.302Z,22.90
2022-12-06T04:31:43.026Z,23.10
2022-12-06T04:36:02.945Z,19.23
2022-12-06T04:40:05.234Z,17.55
2022-12-06T04:44:07.507Z,16.15
2022-12-06T04:48:11.103Z,8.60
2022-12-06T04:52:12.699Z,20.67
2022-12-06T04:56:14.180Z,15.48
2022-12-06T05:00:15.973Z,12.98
2022-12-06T05:04:17.806Z,12.63
2022-12-06T05:08:19.595Z,5.43
2022-12-06T05:12:21.094Z,15.18
2022-12-06T05:16:22.616Z,9.45
2022-12-06T05:20:24.314Z,12.57
2022-12-06T05:24:25.957Z,14.32
2022-12-06T05:28:28.420Z,13.45
2022-12-06T05:32:29.915Z,18.92
2022-12-06T05:36:32.522Z,12.80
2022-12-06T05:40:33.964Z,14.85
2022-12-06T05:44:35.613Z,15.77
2022-12-06T05:48:37.061Z,17.00
2022-12-06T05:52:38.526Z,14.75
2022-12-06T05:56:40.028Z,8.13
2022-12-06T06:00:41.496Z,16.13
2022-12-06T06:04:42.916Z,10.55
2022-12-06T06:08:44.374Z,12.27
2022-12-06T06:12:45.919Z,11.73
2022-12-06T06:16:47.452Z,11.27
2022-12-06T06:20:54.174Z,9.52
2022-12-06T06:24:55.674Z,8.23
2022-12-06T06:28:57.114Z,4.43
2022-12-06T06:32:58.569Z,12.77
2022-12-06T06:37:00.072Z,10.88
2022-12-06T06:41:03.433Z,10.85
2022-12-06T06:45:05.956Z,11.63
2022-12-06T06:49:07.629Z,11.00
2022-12-06T06:53:09.178Z,11.85
2022-12-06T06:57:17.200Z,13.60
2022-12-06T07:01:23.713Z,10.20
2022-12-06T07:05:25.815Z,10.68
2022-12-06T07:09:27.393Z,11.30
2022-12-06T07:13:29.797Z,12.65
2022-12-06T07:17:31.290Z,12.20
2022-12-06T07:21:32.725Z,11.07
2022-12-06T07:25:34.365Z,10.63
2022-12-06T07:29:35.797Z,11.35
2022-12-06T07:33:37.557Z,10.77
2022-12-06T07:37:45.383Z,11.25
2022-12-06T07:42:05.716Z,10.57
2022-12-06T07:50:18.733Z,11.23
2022-12-06T07:54:20.398Z,9.70
2022-12-06T07:58:21.853Z,8.70
2022-12-06T08:02:26.083Z,10.50
2022-12-06T08:06:27.896Z,10.40
2022-12-06T08:10:29.309Z,10.77
2022-12-06T08:14:30.790Z,12.55
2022-12-06T08:18:32.274Z,12.15
2022-12-06T08:22:34.190Z,7.68
2022-12-06T08:26:36.408Z,6.30
2022-12-06T08:30:41.426Z,10.45
2022-12-06T08:34:43.723Z,11.95
2022-12-06T08:38:45.737Z,8.68
2022-12-06T08:42:47.181Z,8.48
2022-12-06T08:46:48.939Z,10.45
2022-12-06T08:50:50.485Z,9.20
2022-12-06T08:54:51.900Z,10.13
2022-12-06T08:58:54.852Z,7.50
2022-12-06T09:02:56.390Z,9.85
2022-12-06T09:06:57.818Z,9.57
2022-12-06T09:10:59.271Z,9.65
2022-12-06T09:15:00.691Z,8.70
2022-12-06T09:19:02.323Z,8.68
2022-12-06T09:23:03.783Z,9.00
2022-12-06T09:27:05.320Z,8.63
2022-12-06T09:31:08.414Z,8.73
2022-12-06T09:35:15.131Z,8.35
2022-12-06T09:39:40.333Z,7.40
2022-12-06T09:43:56.696Z,9.10
2022-12-06T09:48:33.438Z,7.95
2022-12-06T09:53:16.358Z,8.27
2022-12-06T09:57:29.765Z,9.32
2022-12-06T10:01:59.206Z,6.18
2022-12-06T10:06:03.069Z,7.10
2022-12-06T10:10:13.497Z,6.63
2022-12-06T10:14:39.996Z,12.52
2022-12-06T10:19:03.211Z,4.25
2022-12-06T10:23:19.787Z,6.80
2022-12-06T10:27:36.841Z,4.28
2022-12-06T10:31:58.511Z,6.72
2022-12-06T10:36:09.907Z,8.30
2022-12-06T10:40:34.247Z,8.60
2022-12-06T10:44:44.450Z,6.45
2022-12-06T10:49:02.948Z,6.30
2022-12-06T10:53:12.656Z,7.07
2022-12-06T10:57:21.675Z,8.40
2022-12-06T11:01:28.705Z,7.07
2022-12-06T11:05:36.706Z,6.20
2022-12-06T11:09:49.438Z,4.68
2022-12-06T11:13:59.984Z,4.65
2022-12-06T11:18:18.121Z,5.95
2022-12-06T11:22:37.722Z,6.07
2022-12-06T11:26:52.348Z,6.03
2022-12-06T11:30:56.272Z,6.15
2022-12-06T11:35:00.592Z,6.65
2022-12-06T11:39:03.504Z,3.85
2022-12-06T11:43:07.998Z,6.90
2022-12-06T11:47:14.798Z,8.70
2022-12-06T11:51:19.911Z,7.68
2022-12-06T11:55:26.327Z,8.95
2022-12-06T11:59:30.599Z,7.90
2022-12-06T12:03:35.405Z,8.20
2022-12-06T12:07:40.848Z,10.07
2022-12-06T12:11:42.788Z,7.50
2022-12-06T12:15:51.154Z,9.18
2022-12-06T12:20:00.992Z,11.07
2022-12-06T12:24:03.346Z,6.95
2022-12-06T12:28:24.896Z,8.68
2022-12-06T12:32:26.377Z,8.45
2022-12-06T12:36:29.184Z,5.90
2022-12-06T12:40:33.665Z,9.70
2022-12-06T12:44:39.562Z,3.95
2022-12-06T12:48:45.154Z,6.30
2022-12-06T12:52:47.377Z,4.70
2022-12-06T12:56:50.183Z,6.68
2022-12-06T13:00:53.067Z,7.57
2022-12-06T13:05:40.595Z,8.57
2022-12-06T13:10:01.300Z,6.65
2022-12-06T13:14:03.621Z,8.30
2022-12-06T13:18:19.795Z,7.22
2022-12-06T13:22:29.642Z,7.88
2022-12-06T13:26:39.662Z,6.57
2022-12-06T13:30:42.030Z,7.25
2022-12-06T13:34:50.935Z,6.30
2022-12-06T13:38:52.645Z,1.73
2022-12-06T13:42:54.154Z,8.82
2022-12-06T13:47:27.403Z,10.40
2022-12-06T13:51:32.504Z,7.45
2022-12-06T13:55:36.765Z,8.30
2022-12-06T13:59:39.217Z,9.38
2022-12-06T14:03:41.282Z,10.48
2022-12-06T14:07:42.817Z,7.22
2022-12-06T14:11:45.066Z,9.65
2022-12-06T14:15:49.296Z,8.02
2022-12-06T14:19:51.755Z,7.10
2022-12-06T14:23:53.379Z,4.53
2022-12-06T14:28:04.113Z,5.05
2022-12-06T14:32:05.839Z,6.43
2022-12-06T14:36:17.472Z,2.80
2022-12-06T14:40:55.309Z,7.25
2022-12-06T14:45:01.905Z,5.88
2022-12-06T14:49:22.847Z,8.95
2022-12-06T14:57:49.538Z,9.05
2022-12-06T15:01:54.309Z,8.82
2022-12-06T15:06:18.320Z,5.53
2022-12-06T15:10:30.262Z,6.10
2022-12-06T15:14:35.081Z,7.50
2022-12-06T15:18:54.600Z,6.88
2022-12-06T15:22:56.123Z,7.70
2022-12-06T15:26:57.740Z,8.05
2022-12-06T15:30:59.371Z,6.72
2022-12-06T15:35:00.856Z,7.60
2022-12-06T15:39:02.447Z,8.10
2022-12-06T15:43:03.964Z,9.63
2022-12-06T15:47:05.493Z,8.85
2022-12-06T15:51:10.775Z,5.60
2022-12-06T15:55:18.038Z,8.68
2022-12-06T15:59:20.150Z,8.52
2022-12-06T16:03:21.714Z,6.78
2022-12-06T16:07:23.274Z,5.18
2022-12-06T16:11:26.488Z,8.95
2022-12-06T16:15:28.086Z,8.73
2022-12-06T16:19:49.549Z,9.57
2022-12-06T16:24:13.097Z,5.95
2022-12-06T16:28:15.932Z,9.70
2022-12-06T16:32:17.455Z,8.05
2022-12-06T16:36:22.011Z,9.25
2022-12-06T16:40:26.550Z,7.97
2022-12-06T16:44:28.498Z,6.18
2022-12-06T16:48:30.010Z,6.97
2022-12-06T16:52:31.531Z,7.72
2022-12-06T16:56:35.297Z,8.43
2022-12-06T17:00:39.013Z,8.80
2022-12-06T17:04:42.766Z,5.32
2022-12-06T17:08:44.397Z,11.07
2022-12-06T17:12:48.216Z,10.15
2022-12-06T17:16:49.774Z,7.20
2022-12-06T17:20:51.277Z,5.80
2022-12-06T17:24:52.881Z,6.78
2022-12-06T17:28:55.085Z,6.70
2022-12-06T17:32:56.612Z,7.10
2022-12-06T17:36:58.944Z,6.45
2022-12-06T17:41:00.355Z,7.13
2022-12-06T17:45:02.766Z,6.82
2022-12-06T17:49:05.397Z,6.20
2022-12-06T17:53:06.872Z,6.65
2022-12-06T17:57:15.343Z,9.13
2022-12-06T18:01:16.984Z,9.23
2022-12-06T18:05:18.568Z,7.15
2022-12-06T18:09:20.786Z,6.80
2022-12-06T18:13:22.281Z,11.25
2022-12-06T18:17:23.840Z,10.07
2022-12-06T18:21:25.805Z,11.98
2022-12-06T18:25:27.315Z,11.60
2022-12-06T18:29:28.882Z,11.88
2022-12-06T18:33:34.198Z,11.75
2022-12-06T18:37:35.671Z,10.35
2022-12-06T18:41:37.192Z,17.65
2022-12-06T18:45:39.037Z,16.00
2022-12-06T18:49:41.197Z,20.77
2022-12-06T18:53:43.551Z,15.82
2022-12-06T18:57:45.004Z,14.73
2022-12-06T19:01:46.763Z,15.02
2022-12-06T19:06:02.540Z,13.98
2022-12-06T19:10:05.556Z,14.38
2022-12-06T19:14:08.206Z,13.73
2022-12-06T19:18:13.406Z,17.13
2022-12-06T19:22:14.897Z,15.63
2022-12-06T19:26:16.391Z,18.42
2022-12-06T19:30:18.749Z,17.15
2022-12-06T19:34:22.876Z,14.57
2022-12-06T19:38:25.132Z,13.55
2022-12-06T19:42:44.981Z,16.00
2022-12-06T19:46:48.133Z,18.30
2022-12-06T19:50:49.581Z,16.48
2022-12-06T19:54:51.258Z,17.67
2022-12-06T19:58:57.295Z,14.77
2022-12-06T20:02:58.842Z,20.48
2022-12-06T20:07:04.716Z,17.00
2022-12-06T20:11:28.658Z,21.23
2022-12-06T20:15:34.682Z,21.45
2022-12-06T20:19:49.043Z,21.13
2022-12-06T20:23:53.560Z,16.27
2022-12-06T20:27:59.747Z,17.38
2022-12-06T20:32:02.112Z,17.70
2022-12-06T20:36:19.273Z,18.55
2022-12-06T20:40:20.690Z,17.08
2022-12-06T20:44:25.838Z,10.13
2022-12-06T20:48:31.039Z,18.23
2022-12-06T20:52:32.511Z,15.68
2022-12-06T20:56:39.429Z,15.27
2022-12-06T21:00:41.485Z,12.27
2022-12-06T21:04:43.462Z,13.52
2022-12-06T21:08:45.502Z,14.10
2022-12-06T21:12:49.710Z,9.70
2022-12-06T21:16:55.513Z,10.35
2022-12-06T21:20:59.572Z,11.65
2022-12-06T21:25:07.222Z,7.28
2022-12-06T21:29:14.872Z,7.20
2022-12-06T21:33:16.483Z,6.40
2022-12-06T21:37:17.944Z,8.50
2022-12-06T21:41:20.214Z,5.63
2022-12-06T21:45:21.698Z,6.35
2022-12-06T21:49:23.228Z,7.18
2022-12-06T21:53:24.681Z,4.68
2022-12-06T21:57:26.189Z,6.70
2022-12-06T22:01:29.822Z,3.58
2022-12-06T22:05:31.337Z,6.22
2022-12-06T22:09:32.925Z,4.70
2022-12-06T22:13:35.333Z,5.68
2022-12-06T22:17:36.816Z,9.15
2022-12-06T22:21:38.279Z,7.22
2022-12-06T22:25:39.756Z,8.32
2022-12-06T22:29:41.271Z,7.65
2022-12-06T22:33:43.500Z,9.85
2022-12-06T22:37:45.010Z,8.75
2022-12-06T22:41:46.573Z,10.15
2022-12-06T22:45:48.014Z,8.07
2022-12-06T22:49:49.434Z,10.02
2022-12-06T22:53:56.056Z,10.43
2022-12-06T22:57:57.530Z,15.00
2022-12-06T23:01:59.064Z,3.17
2022-12-06T23:06:00.895Z,7.32
2022-12-06T23:10:02.599Z,9.90
2022-12-06T23:14:04.741Z,15.23
2022-12-06T23:18:06.212Z,13.35
2022-12-06T23:22:07.681Z,17.10
2022-12-06T23:26:12.192Z,17.55
2022-12-06T23:30:13.776Z,16.95
2022-12-06T23:34:22.365Z,18.10
2022-12-06T23:38:23.884Z,9.60
2022-12-06T23:42:25.299Z,12.95
2022-12-06T23:46:32.161Z,10.73
2022-12-06T23:50:33.641Z,15.35
2022-12-06T23:54:35.074Z,14.65
2022-12-06T23:58:37.437Z,3.20
